Time;durP1;ratioP1;P1;durP2;ratioP2;P2;SDS_P1;SDS_P2;PMS_P1;PMS_P2;Temp;Humidity;BMP_temperature;BMP_pressure;BME280_temperature;BME280_humidity;BME280_pressure;Samples;Min_cycle;Max_cycle;Signal;HPM_P1;HPM_P2
2021/11/16 00:01:27;;;;;;;25.63;13.57;;;6.90;99.90;;;;;;5046247;28;20029;-74
2021/11/16 00:03:54;;;;;;;21.35;13.00;;;6.90;99.90;;;;;;5048726;28;20031;-74
2021/11/16 00:06:21;;;;;;;24.05;13.73;;;6.90;99.90;;;;;;5050581;28;20377;-74
2021/11/16 00:08:47;;;;;;;25.48;13.23;;;6.90;99.90;;;;;;5057966;28;20036;-75
2021/11/16 00:11:14;;;;;;;25.55;14.15;;;6.80;99.90;;;;;;5045950;28;20025;-74
2021/11/16 00:13:40;;;;;;;24.85;13.60;;;6.80;99.90;;;;;;5051715;28;20648;-74
2021/11/16 00:16:06;;;;;;;22.73;12.55;;;6.80;99.90;;;;;;5046106;28;20113;-74
2021/11/16 00:18:32;;;;;;;25.20;14.93;;;6.80;99.90;;;;;;5050651;28;20025;-74
2021/11/16 00:20:59;;;;;;;24.15;12.70;;;6.80;99.90;;;;;;5052625;28;20039;-75
2021/11/16 00:23:34;;;;;;;21.85;13.32;;;6.80;99.90;;;;;;5050396;28;20025;-74
2021/11/16 00:26:01;;;;;;;21.65;12.02;;;6.90;99.90;;;;;;5048826;28;20368;-74
2021/11/16 00:28:27;;;;;;;22.40;13.18;;;6.80;99.90;;;;;;5052856;28;20040;-75
2021/11/16 00:30:54;;;;;;;26.05;13.98;;;6.80;99.90;;;;;;5054488;28;20025;-74
2021/11/16 00:33:21;;;;;;;25.08;14.38;;;6.80;99.90;;;;;;5051812;28;20025;-74
2021/11/16 00:35:48;;;;;;;30.08;15.23;;;6.70;99.90;;;;;;5033714;28;20024;-74
2021/11/16 00:38:16;;;;;;;31.35;15.63;;;6.70;99.90;;;;;;5050462;28;20034;-74
2021/11/16 00:40:43;;;;;;;28.70;15.05;;;6.70;99.90;;;;;;5053483;28;20100;-75
2021/11/16 00:43:09;;;;;;;33.80;17.27;;;6.70;99.90;;;;;;5055753;28;20029;-75
2021/11/16 00:45:37;;;;;;;31.13;17.92;;;6.70;99.90;;;;;;5048389;28;20029;-75
2021/11/16 00:48:04;;;;;;;36.22;18.98;;;6.60;99.90;;;;;;5047790;28;20037;-74
2021/11/16 00:50:30;;;;;;;32.15;18.30;;;6.60;99.90;;;;;;5052187;28;20029;-74
2021/11/16 00:52:56;;;;;;;32.75;16.83;;;6.60;99.90;;;;;;5048191;28;20029;-74
2021/11/16 00:55:22;;;;;;;32.67;17.50;;;6.60;99.90;;;;;;5040667;28;20476;-74
2021/11/16 00:57:48;;;;;;;32.72;17.83;;;6.50;99.90;;;;;;5050121;28;20025;-75
2021/11/16 01:00:16;;;;;;;31.63;16.30;;;6.60;99.90;;;;;;5050382;28;20033;-74
2021/11/16 01:02:42;;;;;;;31.35;15.73;;;6.60;99.90;;;;;;5045552;28;20029;-74
2021/11/16 01:05:11;;;;;;;30.35;16.65;;;6.60;99.90;;;;;;5050010;28;20041;-74
2021/11/16 01:07:38;;;;;;;30.15;16.40;;;6.60;99.90;;;;;;5050803;28;20424;-74
2021/11/16 01:10:05;;;;;;;30.48;15.93;;;6.60;99.90;;;;;;5048889;28;20395;-74
2021/11/16 01:12:31;;;;;;;31.38;16.30;;;6.60;99.90;;;;;;5046451;28;20017;-75
2021/11/16 01:14:57;;;;;;;29.98;14.00;;;6.60;99.90;;;;;;5048892;28;20078;-74
2021/11/16 01:17:24;;;;;;;27.73;15.13;;;6.60;99.90;;;;;;5049185;28;20017;-75
2021/11/16 01:19:50;;;;;;;27.42;14.85;;;6.50;99.90;;;;;;5050063;28;20479;-74
2021/11/16 01:22:16;;;;;;;31.73;16.83;;;6.50;99.90;;;;;;5050494;28;20020;-75
2021/11/16 01:24:43;;;;;;;25.60;14.25;;;6.50;99.90;;;;;;5050420;28;20048;-75
2021/11/16 01:27:11;;;;;;;30.58;15.43;;;6.50;99.90;;;;;;5049195;28;20083;-74
2021/11/16 01:29:38;;;;;;;30.58;16.05;;;6.50;99.90;;;;;;5045725;28;20052;-75
2021/11/16 01:32:06;;;;;;;29.33;15.20;;;6.50;99.90;;;;;;5049513;28;20032;-75
2021/11/16 01:34:33;;;;;;;27.67;14.45;;;6.50;99.90;;;;;;5048370;28;20021;-75
2021/11/16 01:36:59;;;;;;;27.17;14.95;;;6.50;99.90;;;;;;5050717;28;20060;-74
2021/11/16 01:39:27;;;;;;;29.08;16.02;;;6.60;99.90;;;;;;5056381;28;20075;-76
2021/11/16 01:41:53;;;;;;;28.33;15.13;;;6.60;99.90;;;;;;5051351;28;20032;-75
2021/11/16 01:44:19;;;;;;;28.83;14.75;;;6.60;99.90;;;;;;5051487;28;20096;-75
2021/11/16 01:46:45;;;;;;;31.77;15.82;;;6.60;99.90;;;;;;5051582;28;20029;-74
2021/11/16 01:49:12;;;;;;;31.45;15.60;;;6.50;99.90;;;;;;5049183;28;20094;-74
2021/11/16 01:51:38;;;;;;;32.63;16.38;;;6.50;99.90;;;;;;5046357;28;20095;-74
2021/11/16 01:54:05;;;;;;;29.10;15.20;;;6.60;99.90;;;;;;5049932;28;20013;-75
2021/11/16 01:56:36;;;;;;;32.28;16.30;;;6.50;99.90;;;;;;5051744;28;20028;-74
2021/11/16 01:59:03;;;;;;;33.88;16.75;;;6.60;99.90;;;;;;5047297;28;20022;-77
2021/11/16 02:01:30;;;;;;;28.48;14.77;;;6.50;99.90;;;;;;5055066;28;20052;-75
2021/11/16 02:03:56;;;;;;;27.88;15.07;;;6.40;99.90;;;;;;5053861;28;20106;-74
2021/11/16 02:06:28;;;;;;;33.10;17.10;;;6.40;99.90;;;;;;5054384;28;20479;-74
2021/11/16 02:08:56;;;;;;;31.65;16.73;;;6.40;99.90;;;;;;5052089;28;20172;-74
2021/11/16 02:11:23;;;;;;;31.00;17.13;;;6.40;99.90;;;;;;5053222;28;20054;-75
2021/11/16 02:13:49;;;;;;;29.75;15.38;;;6.40;99.90;;;;;;5051870;28;20060;-74
2021/11/16 02:16:15;;;;;;;29.58;15.80;;;6.40;99.90;;;;;;5044366;28;20024;-74
2021/11/16 02:18:43;;;;;;;28.17;16.65;;;6.40;99.90;;;;;;5055708;28;20074;-74
2021/11/16 02:21:09;;;;;;;29.40;15.50;;;6.40;99.90;;;;;;5052780;28;20441;-74
2021/11/16 02:23:37;;;;;;;29.13;15.98;;;6.40;99.90;;;;;;5051939;28;20033;-75
2021/11/16 02:26:03;;;;;;;31.35;15.95;;;6.40;99.90;;;;;;5046571;28;20596;-74
2021/11/16 02:28:29;;;;;;;27.63;15.13;;;6.40;99.90;;;;;;5051213;28;20037;-74
2021/11/16 02:30:55;;;;;;;30.63;15.45;;;6.40;99.90;;;;;;5047693;28;23636;-74
2021/11/16 02:33:21;;;;;;;29.90;16.35;;;6.40;99.90;;;;;;5052335;28;20032;-75
2021/11/16 02:35:49;;;;;;;33.05;16.08;;;6.50;99.90;;;;;;5050970;28;20029;-76
2021/11/16 02:38:16;;;;;;;32.08;16.45;;;6.50;99.90;;;;;;5051886;28;20109;-74
2021/11/16 02:40:42;;;;;;;27.70;15.38;;;6.50;99.90;;;;;;5059774;28;20021;-74
2021/11/16 02:43:08;;;;;;;29.42;15.90;;;6.40;99.90;;;;;;5054982;28;20025;-76
2021/11/16 02:45:34;;;;;;;30.00;15.20;;;6.50;99.90;;;;;;5058642;28;20530;-75
2021/11/16 02:48:11;;;;;;;29.50;15.40;;;6.50;99.90;;;;;;5047664;28;20100;-74
2021/11/16 02:50:40;;;;;;;30.92;16.35;;;6.40;99.90;;;;;;5050368;28;20119;-74
2021/11/16 02:53:06;;;;;;;30.05;15.65;;;6.50;99.90;;;;;;5051902;28;20071;-74
2021/11/16 02:55:32;;;;;;;31.88;16.67;;;6.50;99.90;;;;;;5052606;28;20021;-74
2021/11/16 02:57:57;;;;;;;33.67;17.15;;;6.50;99.90;;;;;;5049980;28;20039;-74
2021/11/16 03:00:23;;;;;;;32.00;16.75;;;6.50;99.90;;;;;;5052640;28;20032;-75
2021/11/16 03:02:49;;;;;;;32.08;15.93;;;6.50;99.90;;;;;;5063272;28;20029;-75
2021/11/16 03:05:15;;;;;;;37.63;16.45;;;6.50;99.90;;;;;;5043039;28;20047;-76
2021/11/16 03:07:48;;;;;;;31.70;17.15;;;6.40;99.90;;;;;;5059736;28;20107;-75
2021/11/16 03:10:17;;;;;;;31.17;16.45;;;6.50;99.90;;;;;;5028671;28;20044;-74
2021/11/16 03:12:43;;;;;;;30.85;16.52;;;6.40;99.90;;;;;;5050959;28;20020;-74
2021/11/16 03:15:09;;;;;;;33.38;16.90;;;6.50;99.90;;;;;;5047864;28;20017;-75
2021/11/16 03:17:35;;;;;;;32.55;16.58;;;6.50;99.90;;;;;;5049305;28;20091;-74
2021/11/16 03:20:08;;;;;;;33.90;16.23;;;6.50;99.90;;;;;;5050329;28;20029;-74
2021/11/16 03:22:57;;;;;;;32.55;17.33;;;6.50;99.90;;;;;;5051278;28;20041;-74
2021/11/16 03:25:28;;;;;;;32.75;17.38;;;6.50;99.90;;;;;;5047164;28;20083;-76
2021/11/16 03:28:02;;;;;;;33.17;16.13;;;6.40;99.90;;;;;;5052780;28;20037;-75
2021/11/16 03:30:29;;;;;;;38.72;18.80;;;6.40;99.90;;;;;;5046926;28;20044;-74
2021/11/16 03:32:54;;;;;;;31.92;17.33;;;6.40;99.90;;;;;;5050309;28;20122;-75
2021/11/16 03:35:20;;;;;;;35.03;17.88;;;6.40;99.90;;;;;;5051294;28;20120;-76
2021/11/16 03:37:49;;;;;;;34.85;16.95;;;6.40;99.90;;;;;;5053636;28;20040;-74
2021/11/16 03:40:16;;;;;;;34.60;17.20;;;6.50;99.90;;;;;;5049971;28;20593;-75
2021/11/16 03:42:47;;;;;;;35.22;17.23;;;6.50;99.90;;;;;;5052118;28;20075;-75
2021/11/16 03:45:16;;;;;;;38.95;19.10;;;6.50;99.90;;;;;;5049920;28;20064;-74
2021/11/16 03:47:42;;;;;;;34.83;17.80;;;6.50;99.90;;;;;;5050968;28;20049;-74
2021/11/16 03:50:12;;;;;;;39.13;18.98;;;6.50;99.90;;;;;;5049387;28;20394;-74
2021/11/16 03:52:42;;;;;;;37.00;18.30;;;6.50;99.90;;;;;;5053324;28;20475;-73
2021/11/16 03:55:09;;;;;;;33.88;17.40;;;6.50;99.90;;;;;;5049713;28;21957;-75
2021/11/16 03:57:35;;;;;;;37.97;18.33;;;6.50;99.90;;;;;;5058359;28;20055;-74
2021/11/16 04:00:04;;;;;;;34.10;17.33;;;6.50;99.90;;;;;;5053466;28;20017;-75
2021/11/16 04:02:30;;;;;;;36.55;18.33;;;6.50;99.90;;;;;;5049652;28;20021;-74
2021/11/16 04:04:56;;;;;;;39.33;20.10;;;6.50;99.90;;;;;;5047222;28;20074;-74
2021/11/16 04:07:21;;;;;;;40.53;19.15;;;6.40;99.90;;;;;;5051355;28;20028;-74
2021/11/16 04:09:47;;;;;;;36.22;19.45;;;6.40;99.90;;;;;;5055816;28;20501;-74
2021/11/16 04:12:13;;;;;;;41.33;19.80;;;6.40;99.90;;;;;;5048056;28;20021;-74
2021/11/16 04:14:39;;;;;;;39.95;20.02;;;6.30;99.90;;;;;;5051578;28;20020;-75
2021/11/16 04:17:05;;;;;;;37.30;19.67;;;6.30;99.90;;;;;;5048934;28;20048;-74
2021/11/16 04:19:31;;;;;;;43.05;18.13;;;6.40;99.90;;;;;;5051473;28;20036;-75
2021/11/16 04:21:57;;;;;;;36.25;18.48;;;6.40;99.90;;;;;;5051082;28;20021;-75
2021/11/16 04:24:23;;;;;;;38.42;19.35;;;6.40;99.90;;;;;;5048314;28;20407;-74
2021/11/16 04:26:49;;;;;;;39.15;18.45;;;6.40;99.90;;;;;;5048260;28;20021;-73
2021/11/16 04:29:14;;;;;;;42.72;20.13;;;6.40;99.90;;;;;;5049503;28;21052;-74
2021/11/16 04:31:40;;;;;;;38.28;18.02;;;6.50;99.90;;;;;;5051931;28;20059;-74
2021/11/16 04:34:07;;;;;;;37.28;18.88;;;6.40;99.90;;;;;;5051268;28;20062;-74
2021/11/16 04:36:34;;;;;;;39.15;19.85;;;6.40;99.90;;;;;;5058458;28;20021;-74
2021/11/16 04:39:01;;;;;;;39.50;20.00;;;6.40;99.90;;;;;;5053459;28;20503;-74
2021/11/16 04:41:27;;;;;;;42.45;21.02;;;6.40;99.90;;;;;;5049699;28;20047;-74
2021/11/16 04:43:55;;;;;;;39.63;19.63;;;6.40;99.90;;;;;;5054604;28;20487;-74
2021/11/16 04:46:23;;;;;;;41.75;19.38;;;6.30;99.90;;;;;;5048798;28;20083;-74
2021/11/16 04:48:55;;;;;;;42.25;19.60;;;6.30;99.90;;;;;;5056644;28;20103;-75
2021/11/16 05:04:50;;;;;;;39.88;18.63;;;6.40;99.90;;;;;;5048551;28;20032;-75
2021/11/16 05:07:17;;;;;;;31.67;16.83;;;6.40;99.90;;;;;;5048955;28;20025;-75
2021/11/16 05:09:55;;;;;;;34.55;17.98;;;6.40;99.90;;;;;;5053835;28;20025;-75
2021/11/16 05:12:23;;;;;;;33.38;16.98;;;6.40;99.90;;;;;;5052657;28;20056;-74
2021/11/16 05:14:50;;;;;;;32.63;16.42;;;6.30;99.90;;;;;;5048480;28;20030;-74
2021/11/16 05:17:15;;;;;;;34.90;16.73;;;6.30;99.90;;;;;;5052325;28;20029;-74
2021/11/16 05:19:41;;;;;;;31.73;16.30;;;6.30;99.90;;;;;;5052218;28;20025;-74
2021/11/16 05:22:07;;;;;;;31.65;16.17;;;6.40;99.90;;;;;;5051263;28;20036;-73
2021/11/16 05:24:33;;;;;;;32.00;16.05;;;6.40;99.90;;;;;;5055799;28;20091;-74
2021/11/16 05:26:59;;;;;;;32.53;17.00;;;6.30;99.90;;;;;;5054387;28;20397;-74
2021/11/16 05:29:25;;;;;;;28.40;16.52;;;6.30;99.90;;;;;;5049000;28;20053;-75
2021/11/16 05:31:51;;;;;;;31.23;17.50;;;6.30;99.90;;;;;;5057192;28;20117;-74
2021/11/16 05:34:17;;;;;;;33.55;17.10;;;6.30;99.90;;;;;;5053843;28;20056;-74
2021/11/16 05:36:43;;;;;;;27.42;15.23;;;6.40;99.90;;;;;;5053913;28;20104;-75
2021/11/16 05:39:10;;;;;;;29.33;15.23;;;6.40;99.90;;;;;;5053300;28;20509;-74
2021/11/16 05:41:36;;;;;;;28.35;16.02;;;6.40;99.90;;;;;;5049457;28;20029;-74
2021/11/16 05:44:03;;;;;;;27.50;15.85;;;6.40;99.90;;;;;;5059666;28;20376;-74
2021/11/16 05:46:29;;;;;;;30.30;16.33;;;6.40;99.90;;;;;;5053139;28;20029;-74
2021/11/16 05:48:56;;;;;;;31.80;16.35;;;6.40;99.90;;;;;;5054964;28;20054;-76
2021/11/16 05:51:24;;;;;;;30.23;15.88;;;6.40;99.90;;;;;;5049300;28;20072;-75
2021/11/16 05:53:57;;;;;;;31.05;16.10;;;6.40;99.90;;;;;;5049970;28;20068;-74
2021/11/16 05:56:25;;;;;;;27.80;15.93;;;6.40;99.90;;;;;;5052743;28;20051;-74
2021/11/16 05:58:53;;;;;;;33.40;17.20;;;6.40;99.90;;;;;;5058585;28;20053;-73
2021/11/16 06:01:24;;;;;;;27.65;16.10;;;6.40;99.90;;;;;;5047822;28;20558;-74
2021/11/16 06:03:53;;;;;;;28.95;15.77;;;6.40;99.90;;;;;;5051791;28;20033;-74
2021/11/16 06:06:24;;;;;;;30.25;15.82;;;6.40;99.90;;;;;;5051250;28;20022;-74
2021/11/16 06:08:50;;;;;;;29.15;15.73;;;6.40;99.90;;;;;;5046012;28;20024;-74
2021/11/16 06:11:17;;;;;;;28.02;16.08;;;6.40;99.90;;;;;;5052390;28;20056;-73
2021/11/16 06:13:48;;;;;;;31.13;16.27;;;6.40;99.90;;;;;;5052011;28;20025;-74
2021/11/16 06:16:14;;;;;;;29.37;16.17;;;6.40;99.90;;;;;;5046092;28;20486;-74
2021/11/16 06:18:41;;;;;;;27.00;15.55;;;6.40;99.90;;;;;;5050895;28;20021;-74
2021/11/16 06:21:07;;;;;;;29.17;15.98;;;6.40;99.90;;;;;;5055192;28;20061;-73
2021/11/16 06:23:33;;;;;;;31.38;16.50;;;6.40;99.90;;;;;;5053727;28;20024;-74
2021/11/16 06:26:00;;;;;;;33.28;17.20;;;6.40;99.90;;;;;;5052687;28;20055;-73
2021/11/16 06:28:26;;;;;;;30.55;15.68;;;6.40;99.90;;;;;;5055512;28;20032;-73
2021/11/16 06:30:52;;;;;;;30.38;15.70;;;6.40;99.90;;;;;;5054370;28;20033;-73
2021/11/16 06:33:20;;;;;;;26.38;15.35;;;6.40;99.90;;;;;;5051396;28;20486;-73
2021/11/16 06:35:45;;;;;;;29.60;16.40;;;6.40;99.90;;;;;;5038864;28;20445;-74
2021/11/16 06:38:11;;;;;;;27.98;15.50;;;6.40;99.90;;;;;;5059846;28;20055;-73
2021/11/16 06:40:37;;;;;;;28.08;14.63;;;6.40;99.90;;;;;;5048017;28;20051;-72
2021/11/16 06:43:03;;;;;;;29.23;15.48;;;6.40;99.90;;;;;;5056720;28;20052;-72
2021/11/16 06:45:29;;;;;;;28.98;15.70;;;6.40;99.90;;;;;;5051349;28;20021;-74
2021/11/16 06:47:55;;;;;;;29.77;16.80;;;6.40;99.90;;;;;;5049894;28;20090;-72
2021/11/16 06:50:21;;;;;;;31.80;16.98;;;6.40;99.90;;;;;;5052168;28;20079;-73
2021/11/16 06:52:49;;;;;;;30.10;16.45;;;6.40;99.90;;;;;;5051400;28;20371;-73
2021/11/16 06:55:15;;;;;;;30.80;15.73;;;6.40;99.90;;;;;;5034753;28;20082;-73
2021/11/16 06:57:43;;;;;;;31.08;16.77;;;6.40;99.90;;;;;;5058475;28;20055;-74
2021/11/16 07:00:10;;;;;;;29.92;15.73;;;6.50;99.90;;;;;;5050326;28;20526;-74
2021/11/16 07:02:36;;;;;;;31.60;16.23;;;6.60;99.90;;;;;;5051657;28;20382;-74
2021/11/16 07:05:10;;;;;;;37.13;18.20;;;6.60;99.90;;;;;;5052192;28;20021;-73
2021/11/16 07:07:44;;;;;;;31.90;16.40;;;6.60;99.90;;;;;;5052067;28;20020;-74
2021/11/16 07:10:14;;;;;;;31.30;16.92;;;6.50;99.90;;;;;;5048093;28;20049;-73
2021/11/16 07:12:41;;;;;;;31.48;16.45;;;6.50;99.90;;;;;;5056049;28;20556;-74
2021/11/16 07:15:07;;;;;;;31.05;17.50;;;6.50;99.90;;;;;;5051181;28;20025;-73
2021/11/16 07:17:32;;;;;;;33.15;17.88;;;6.50;99.90;;;;;;5050973;28;20608;-74
2021/11/16 07:19:59;;;;;;;32.08;16.83;;;6.40;99.90;;;;;;5049724;28;20028;-73
2021/11/16 07:22:31;;;;;;;33.13;17.25;;;6.40;99.90;;;;;;5050469;28;20103;-72
2021/11/16 07:25:08;;;;;;;27.50;15.98;;;6.50;99.90;;;;;;5056387;28;20017;-73
2021/11/16 07:27:41;;;;;;;30.58;16.92;;;6.50;99.90;;;;;;5048042;28;20105;-73
2021/11/16 07:30:19;;;;;;;30.88;17.30;;;6.50;99.90;;;;;;5054737;28;20482;-73
2021/11/16 07:32:49;;;;;;;33.42;17.15;;;6.50;99.90;;;;;;5048571;28;20039;-74
2021/11/16 07:35:17;;;;;;;36.67;18.60;;;6.50;99.90;;;;;;5050664;28;20364;-73
2021/11/16 07:37:45;;;;;;;37.17;18.13;;;6.50;99.90;;;;;;5051451;28;20041;-74
2021/11/16 07:40:17;;;;;;;28.70;16.30;;;6.50;99.90;;;;;;5047724;28;20487;-75
2021/11/16 07:43:07;;;;;;;29.73;16.77;;;6.50;99.90;;;;;;5049797;28;20469;-74
2021/11/16 07:45:43;;;;;;;32.92;17.17;;;6.50;99.90;;;;;;5049089;28;20027;-72
2021/11/16 07:48:20;;;;;;;34.55;17.25;;;6.50;99.90;;;;;;5049181;28;20520;-73
2021/11/16 07:50:47;;;;;;;34.00;18.65;;;6.50;99.90;;;;;;5051604;28;20074;-74
2021/11/16 07:53:31;;;;;;;34.30;17.35;;;6.40;99.90;;;;;;5049004;28;20429;-73
2021/11/16 07:56:09;;;;;;;32.97;17.73;;;6.50;99.90;;;;;;5054362;28;20025;-73
2021/11/16 07:58:47;;;;;;;34.00;17.83;;;6.50;99.90;;;;;;5047033;28;20174;-73
2021/11/16 08:04:04;;;;;;;33.00;18.23;;;6.50;99.90;;;;;;5048020;28;20025;-73
2021/11/16 08:06:38;;;;;;;34.33;17.73;;;6.50;99.90;;;;;;5049840;28;20399;-72
2021/11/16 08:09:18;;;;;;;35.55;18.08;;;6.50;99.90;;;;;;5068027;28;20029;-74
2021/11/16 08:11:48;;;;;;;34.17;17.88;;;6.50;99.90;;;;;;5042690;28;20036;-72
2021/11/16 08:14:15;;;;;;;34.58;18.98;;;6.50;99.90;;;;;;5042412;28;20083;-75
2021/11/16 08:16:59;;;;;;;36.47;18.38;;;6.50;99.90;;;;;;5047567;28;20036;-73
2021/11/16 08:19:28;;;;;;;37.40;18.58;;;6.50;99.90;;;;;;5044932;28;20062;-74
2021/11/16 08:21:56;;;;;;;34.60;18.40;;;6.50;99.90;;;;;;5058472;28;20554;-72
2021/11/16 08:24:23;;;;;;;35.63;18.67;;;6.50;99.90;;;;;;5043874;28;20036;-73
2021/11/16 08:26:51;;;;;;;39.20;19.35;;;6.40;99.90;;;;;;5048866;28;20036;-74
2021/11/16 08:29:33;;;;;;;35.72;18.48;;;6.50;99.90;;;;;;5047788;28;20033;-74
2021/11/16 08:32:07;;;;;;;;;;;6.50;99.90;;;;;;5037305;28;20033;-73
2021/11/16 08:34:35;;;;;;;34.22;18.17;;;6.50;99.90;;;;;;5039420;28;19916;-73
2021/11/16 08:37:06;;;;;;;36.55;18.48;;;6.40;99.90;;;;;;5040331;28;20033;-73
2021/11/16 08:39:47;;;;;;;34.60;18.75;;;6.40;99.90;;;;;;5043055;28;20060;-73
2021/11/16 08:42:20;;;;;;;43.97;21.33;;;6.40;99.90;;;;;;5045897;28;20092;-75
2021/11/16 08:44:48;;;;;;;39.92;20.33;;;6.40;99.90;;;;;;5048559;28;20307;-75
2021/11/16 08:47:15;;;;;;;41.83;20.60;;;6.40;99.90;;;;;;5047763;28;20035;-73
2021/11/16 08:49:43;;;;;;;36.00;20.15;;;6.40;99.90;;;;;;5047830;28;20108;-73
2021/11/16 08:52:20;;;;;;;41.35;20.83;;;6.40;99.90;;;;;;5045960;28;20037;-74
2021/11/16 08:55:00;;;;;;;38.35;20.33;;;6.40;99.90;;;;;;5048149;28;20079;-73
2021/11/16 08:57:28;;;;;;;39.22;19.67;;;6.40;99.90;;;;;;5050620;28;20037;-75
2021/11/16 08:59:55;;;;;;;41.70;20.45;;;6.40;99.90;;;;;;5049987;28;20028;-73
2021/11/16 09:02:24;;;;;;;39.95;20.20;;;6.50;99.90;;;;;;5044826;28;20025;-73
2021/11/16 09:04:50;;;;;;;40.67;20.40;;;6.50;99.90;;;;;;5045878;28;20116;-74
2021/11/16 09:07:24;;;;;;;38.22;20.00;;;6.50;99.90;;;;;;5049008;28;20112;-74
2021/11/16 09:09:52;;;;;;;41.92;21.65;;;6.50;99.90;;;;;;5047225;28;20106;-75
2021/11/16 09:12:18;;;;;;;46.33;22.75;;;6.50;99.90;;;;;;5049937;28;20031;-73
2021/11/16 09:14:55;;;;;;;45.72;22.42;;;6.50;99.90;;;;;;5048644;28;20112;-74
2021/11/16 09:17:21;;;;;;;42.75;20.95;;;6.50;99.90;;;;;;5048619;28;20550;-73
2021/11/16 09:19:46;;;;;;;43.97;22.23;;;6.50;99.90;;;;;;5046995;28;20112;-73
2021/11/16 09:22:17;;;;;;;41.38;20.15;;;6.50;99.90;;;;;;5050233;28;20029;-74
2021/11/16 09:24:45;;;;;;;;;;;6.50;99.90;;;;;;5047458;28;20556;-73
2021/11/16 09:27:23;;;;;;;39.65;20.95;;;6.50;99.90;;;;;;5043761;28;19909;-73
2021/11/16 09:29:50;;;;;;;45.55;21.42;;;6.50;99.90;;;;;;5047445;28;20487;-74
2021/11/16 09:32:16;;;;;;;42.47;22.15;;;6.50;99.90;;;;;;5047484;28;20380;-73
2021/11/16 09:34:51;;;;;;;43.20;22.15;;;6.50;99.90;;;;;;5046658;28;20434;-73
2021/11/16 09:37:21;;;;;;;46.17;22.58;;;6.50;99.90;;;;;;5045380;28;20029;-74
2021/11/16 09:39:49;;;;;;;41.75;20.38;;;6.50;99.90;;;;;;5043500;28;20044;-74
2021/11/16 09:42:22;;;;;;;46.53;22.58;;;6.50;99.90;;;;;;5057410;28;20139;-73
2021/11/16 09:44:52;;;;;;;43.00;21.55;;;6.50;99.90;;;;;;5040931;28;20028;-74
2021/11/16 09:47:34;;;;;;;45.33;22.38;;;6.50;99.90;;;;;;5042498;28;20036;-73
2021/11/16 09:50:07;;;;;;;48.78;23.25;;;6.50;99.90;;;;;;5043384;28;20040;-75
2021/11/16 09:52:42;;;;;;;43.08;21.83;;;6.50;99.90;;;;;;5037602;28;20033;-75
2021/11/16 09:55:17;;;;;;;48.70;22.88;;;6.50;99.90;;;;;;5040026;28;20025;-73
2021/11/16 09:57:55;;;;;;;47.75;21.98;;;6.60;99.90;;;;;;5039791;28;20235;-73
2021/11/16 10:00:32;;;;;;;52.97;24.17;;;6.50;99.90;;;;;;5040820;28;20028;-73
2021/11/16 10:03:08;;;;;;;45.05;22.05;;;6.50;99.90;;;;;;5041674;28;20029;-73
2021/11/16 10:05:58;;;;;;;48.03;22.92;;;6.50;99.90;;;;;;5043174;28;20037;-73
2021/11/16 10:08:25;;;;;;;49.53;24.02;;;6.50;99.90;;;;;;5044677;28;20017;-73
2021/11/16 10:10:55;;;;;;;49.22;23.55;;;6.50;99.90;;;;;;5041640;28;20768;-74
2021/11/16 10:13:31;;;;;;;53.08;25.17;;;6.50;99.90;;;;;;5040491;28;20121;-74
2021/11/16 10:16:00;;;;;;;51.00;24.73;;;6.40;99.90;;;;;;5042678;28;20021;-75
2021/11/16 10:18:28;;;;;;;50.17;24.90;;;6.40;99.90;;;;;;5049091;28;20037;-73
2021/11/16 10:20:55;;;;;;;48.70;24.45;;;6.40;99.90;;;;;;5043769;28;20551;-74
2021/11/16 10:23:40;;;;;;;49.08;25.33;;;6.40;99.90;;;;;;5045628;28;20548;-73
2021/11/16 10:26:07;;;;;;;52.83;25.17;;;6.30;99.90;;;;;;5046885;28;20044;-74
2021/11/16 10:28:35;;;;;;;50.90;24.98;;;6.40;99.90;;;;;;5046035;28;20120;-74
2021/11/16 10:31:02;;;;;;;51.28;24.02;;;6.40;99.90;;;;;;5040032;28;20037;-73
2021/11/16 10:33:34;;;;;;;50.05;23.75;;;6.40;99.90;;;;;;5043166;28;20032;-74
2021/11/16 10:36:10;;;;;;;51.17;24.25;;;6.40;99.90;;;;;;5044287;28;20560;-73
2021/11/16 10:38:39;;;;;;;57.78;26.88;;;6.50;99.90;;;;;;5043474;28;20041;-73
2021/11/16 10:41:08;;;;;;;58.63;26.02;;;6.50;99.90;;;;;;5042897;28;20033;-73
2021/11/16 10:43:38;;;;;;;52.38;25.15;;;6.50;99.90;;;;;;5046551;28;20054;-73
2021/11/16 10:46:06;;;;;;;49.63;24.17;;;6.40;99.90;;;;;;5053532;28;20168;-73
2021/11/16 10:48:33;;;;;;;48.90;24.90;;;6.40;99.90;;;;;;5044577;28;20172;-73
2021/11/16 10:51:03;;;;;;;55.75;26.83;;;6.40;99.90;;;;;;5043111;28;20025;-74
2021/11/16 10:53:29;;;;;;;56.83;26.17;;;6.50;99.90;;;;;;5048935;28;20025;-73
2021/11/16 10:56:00;;;;;;;48.95;23.77;;;6.50;99.90;;;;;;5045819;28;20033;-73
2021/11/16 10:58:31;;;;;;;53.17;24.98;;;6.50;99.90;;;;;;5044853;28;20336;-74
2021/11/16 11:01:04;;;;;;;57.03;26.35;;;6.50;99.90;;;;;;5047667;28;20529;-73
2021/11/16 11:03:36;;;;;;;56.70;27.33;;;6.50;99.90;;;;;;5051023;28;20491;-74
2021/11/16 11:06:08;;;;;;;63.97;27.40;;;6.50;99.90;;;;;;5042459;28;20043;-73
2021/11/16 11:08:43;;;;;;;56.65;27.10;;;6.50;99.90;;;;;;5049941;28;20147;-73
2021/11/16 11:11:41;;;;;;;57.38;25.30;;;6.50;99.90;;;;;;5045267;28;20035;-73
2021/11/16 11:14:10;;;;;;;55.45;25.70;;;6.50;99.90;;;;;;5043420;28;20025;-73
2021/11/16 11:16:57;;;;;;;52.50;24.75;;;6.50;99.90;;;;;;5049247;28;20079;-73
2021/11/16 11:19:31;;;;;;;54.28;25.13;;;6.50;99.90;;;;;;5054944;28;20056;-73
2021/11/16 11:22:27;;;;;;;53.45;25.15;;;6.40;99.90;;;;;;5042807;28;20488;-73
2021/11/16 11:30:02;;;;;;;53.72;24.35;;;6.40;99.90;;;;;;5050610;28;20032;-77
2021/11/16 11:32:32;;;;;;;54.80;25.10;;;6.40;99.90;;;;;;5051336;28;20121;-77
2021/11/16 11:35:00;;;;;;;56.17;24.40;;;6.40;99.90;;;;;;5053953;28;20056;-77
2021/11/16 11:37:32;;;;;;;54.10;25.38;;;6.40;99.90;;;;;;5052437;28;20443;-78
2021/11/16 11:40:14;;;;;;;54.28;25.52;;;6.50;99.90;;;;;;5054077;28;20033;-78
2021/11/16 11:42:59;;;;;;;52.67;24.73;;;6.50;99.90;;;;;;5054515;28;20021;-78
2021/11/16 11:45:34;;;;;;;52.13;24.35;;;6.50;99.90;;;;;;5053248;28;20044;-76
2021/11/16 11:48:00;;;;;;;55.55;25.23;;;6.50;99.90;;;;;;5056217;28;20055;-77
2021/11/16 11:50:31;;;;;;;59.88;25.92;;;6.50;99.90;;;;;;5055287;28;20494;-76
2021/11/16 11:53:05;;;;;;;52.95;24.13;;;6.40;99.90;;;;;;5048964;28;20037;-78
2021/11/16 11:55:34;;;;;;;47.80;21.88;;;6.40;99.90;;;;;;5051814;28;20016;-77
2021/11/16 11:58:03;;;;;;;51.72;23.13;;;6.40;99.90;;;;;;5050844;28;20021;-77
2021/11/16 12:00:31;;;;;;;47.88;21.90;;;6.40;99.90;;;;;;5065940;28;20558;-77
2021/11/16 12:02:57;;;;;;;50.92;23.63;;;6.40;99.90;;;;;;5050728;28;20025;-76
2021/11/16 12:05:29;;;;;;;46.45;21.95;;;6.40;99.90;;;;;;5051641;28;20028;-77
2021/11/16 12:07:56;;;;;;;49.83;22.77;;;6.40;99.90;;;;;;5042091;28;20063;-76
2021/11/16 12:10:22;;;;;;;46.25;21.92;;;6.50;99.90;;;;;;5051699;28;20040;-76
2021/11/16 12:12:50;;;;;;;44.03;21.63;;;6.50;99.90;;;;;;5050391;28;20094;-76
2021/11/16 12:15:39;;;;;;;50.75;23.10;;;6.50;99.90;;;;;;5056196;28;20667;-76
2021/11/16 12:18:05;;;;;;;50.78;22.50;;;6.50;99.90;;;;;;5058244;28;20491;-77
2021/11/16 12:20:52;;;;;;;51.92;24.25;;;6.50;99.90;;;;;;5049860;28;20398;-76
2021/11/16 12:23:39;;;;;;;55.20;24.02;;;6.40;99.90;;;;;;5053771;28;20519;-77
2021/11/16 12:26:10;;;;;;;54.13;24.80;;;6.40;99.90;;;;;;5044574;28;20092;-76
2021/11/16 12:28:36;;;;;;;;;;;6.40;99.90;;;;;;5049846;28;20052;-77
2021/11/16 12:31:03;;;;;;;56.75;23.42;;;6.30;99.90;;;;;;5045407;28;20380;-76
2021/11/16 12:33:47;;;;;;;50.58;23.42;;;6.20;99.90;;;;;;5044365;28;20086;-76
2021/11/16 12:36:37;;;;;;;51.17;22.92;;;6.20;99.90;;;;;;5046748;28;20031;-76
2021/11/16 12:39:24;;;;;;;50.65;23.42;;;6.20;99.90;;;;;;5047429;28;20113;-76
2021/11/16 12:42:06;;;;;;;51.05;23.05;;;6.20;99.90;;;;;;5043321;28;20044;-76
2021/11/16 12:44:31;;;;;;;;;;;6.20;99.90;;;;;;5048508;28;20033;-75
2021/11/16 12:47:06;;;;;;;50.08;22.65;;;6.20;99.90;;;;;;5047215;28;19915;-76
2021/11/16 12:49:38;;;;;;;53.97;23.23;;;6.30;99.90;;;;;;5045163;28;20479;-75
2021/11/16 12:52:07;;;;;;;50.20;22.38;;;6.30;99.90;;;;;;5043060;28;20032;-76
2021/11/16 12:54:34;;;;;;;46.88;21.63;;;6.30;99.90;;;;;;5046383;28;20434;-76
2021/11/16 12:57:00;;;;;;;47.53;21.88;;;6.30;99.90;;;;;;5044994;28;20028;-77
2021/11/16 12:59:32;;;;;;;51.72;23.55;;;6.30;99.90;;;;;;5049108;28;20419;-75
2021/11/16 13:02:04;;;;;;;42.58;20.65;;;6.30;99.90;;;;;;5047920;28;20025;-75
2021/11/16 13:04:49;;;;;;;47.92;21.80;;;6.40;99.90;;;;;;5053066;28;20033;-76
2021/11/16 13:07:19;;;;;;;51.88;23.85;;;6.40;99.90;;;;;;5043864;28;20044;-77
2021/11/16 13:09:52;;;;;;;49.75;22.40;;;6.40;99.90;;;;;;5045559;28;20110;-76
2021/11/16 13:12:33;;;;;;;51.90;22.58;;;6.40;99.90;;;;;;5046057;28;20036;-76